Aviation Digital Data Service (ADDS)

Output produced by METARs form (1739 UTC 27 May 2017)
found at http://www.aviationweather.gov/adds/metars/
 
HEAX 271700Z 35010KT CAVOK 23/17 Q1011 NOSIG
TAF HEAX 271700Z 2718/2824 01010KT 9999 FEW020
       
HEBA 271700Z 31012KT CAVOK 23/18 Q1011 NOSIG
TAF HEBA 271700Z 2718/2824 02010KT 9999 FEW020
       
HESN 271700Z 03009KT CAVOK 37/M05 Q1009 NOSIG
TAF HESN 271700Z 2718/2824 36010KT CAVOK
       
HEAT 271700Z 27012KT CAVOK 37/11 Q1011 NOSIG
TAF HEAT 271700Z 2718/2824 02012KT CAVOK
       
HECA 271730Z 33015KT CAVOK 30/16 Q1010 NOSIG
TAF HECA 271700Z 2718/2824 30010G20KT CAVOK 
     TEMPO 2800/2808 VRB03KT
       
HEAR 271700Z 01004KT CAVOK 28/15 Q1009 NOSIG
TAF HEAR 271700Z 2718/2824 VRB03KT CAVOK 
     BECMG 2806/2808 18009KT 
     BECMG 2817/2819 VRB03KT
       
HEGN 271700Z 14002KT CAVOK 33/03 Q1008 NOSIG
TAF HEGN 271700Z 2718/2824 30013KT CAVOK
       
HELX 271700Z 31004KT CAVOK 36/12 Q1007 NOSIG
TAF HELX 271700Z 2718/2824 33008KT CAVOK
       
HEMM 271700Z 01010KT 9999 SCT020 22/12 Q1012 NOSIG
TAF HEMM 271700Z 2718/2824 02012KT 9999 FEW020
       
HEPS 271700Z 33012KT CAVOK 27/19 Q1009 NOSIG
TAF HEPS 271700Z 2718/2824 30010KT CAVOK 
     TEMPO 2800/2808 32006KT 
     BECMG 2808/2810 36010G20KT
       
HESH 271700Z 17006KT CAVOK 34/01 Q1007 NOSIG
TAF HESH 271700Z 2718/2824 31012KT CAVOK
       
TAF HETB 271700Z 2718/2824 VRB03KT CAVOK 
     BECMG 2807/2809 03014KT 
     BECMG 2818/2820 VRB03KT